Time;durP1;ratioP1;P1;durP2;ratioP2;P2;SDS_P1;SDS_P2;PMS_P1;PMS_P2;Temp;Humidity;BMP_temperature;BMP_pressure;BME280_temperature;BME280_humidity;BME280_pressure;Samples;Min_cycle;Max_cycle;Signal;HPM_P1;HPM_P2
2023/07/20 00:00:06;;;;;;;10.57;3.15;;;;;;;25.50;51.83;98491.81;4371252;32;33706;-85
2023/07/20 00:02:39;;;;;;;9.88;3.25;;;;;;;25.35;52.48;98498.84;4389905;32;34936;-84
2023/07/20 00:05:07;;;;;;;7.93;3.58;;;;;;;25.61;51.89;98494.69;4389587;32;35051;-83
2023/07/20 00:07:35;;;;;;;9.02;3.80;;;;;;;25.59;51.50;98485.09;4376075;32;32662;-85
2023/07/20 00:10:02;;;;;;;8.52;3.80;;;;;;;25.60;51.88;98487.62;4388327;32;33648;-84
2023/07/20 00:12:30;;;;;;;10.07;3.40;;;;;;;25.59;51.92;98485.09;4382534;32;33643;-84
2023/07/20 00:14:58;;;;;;;10.40;3.95;;;;;;;25.59;51.87;98480.62;4389973;32;33414;-85
2023/07/20 00:17:26;;;;;;;8.20;3.50;;;;;;;25.65;51.75;98485.59;4361004;32;33998;-84
2023/07/20 00:19:55;;;;;;;9.88;3.20;;;;;;;25.73;51.67;98469.19;4389271;32;33480;-84
2023/07/20 00:22:22;;;;;;;8.35;3.08;;;;;;;25.51;51.94;98460.81;4374253;32;34517;-85
2023/07/20 00:24:50;;;;;;;8.82;3.58;;;;;;;25.33;52.37;98468.03;4375550;32;33723;-84
2023/07/20 00:27:17;;;;;;;12.73;3.95;;;;;;;25.41;52.38;98476.41;4389436;32;34791;-83
2023/07/20 00:29:45;;;;;;;8.70;3.60;;;;;;;25.35;52.42;98471.47;4375852;32;33480;-85
2023/07/20 00:32:13;;;;;;;9.40;3.87;;;;;;;25.22;52.86;98474.81;4389431;32;33857;-84
2023/07/20 00:34:41;;;;;;;7.65;2.97;;;;;;;25.36;52.67;98484.63;4375457;32;34593;-84
2023/07/20 00:37:08;;;;;;;8.18;3.50;;;;;;;25.40;52.35;98495.94;4398063;32;33886;-83
2023/07/20 00:39:36;;;;;;;7.47;3.33;;;;;;;25.30;52.43;98494.75;4389350;32;33692;-83
2023/07/20 00:42:04;;;;;;;9.75;3.53;;;;;;;25.15;53.00;98480.56;4390177;32;34718;-83
2023/07/20 00:44:32;;;;;;;9.20;3.12;;;;;;;25.26;52.75;98486.09;4403342;32;33792;-84
2023/07/20 00:46:59;;;;;;;9.48;3.58;;;;;;;25.08;53.36;98488.00;4403730;32;34913;-84
2023/07/20 00:49:28;;;;;;;7.60;3.58;;;;;;;25.17;52.90;98471.59;4402847;32;33689;-85
2023/07/20 00:52:00;;;;;;;7.57;3.10;;;;;;;25.09;53.08;98476.44;4396810;32;36380;-84
2023/07/20 00:54:27;;;;;;;10.02;3.92;;;;;;;25.13;53.29;98470.06;4391380;32;34160;-84
2023/07/20 00:56:55;;;;;;;10.05;4.28;;;;;;;25.34;52.87;98464.44;4390971;32;33858;-84
2023/07/20 00:59:23;;;;;;;9.38;3.45;;;;;;;25.20;53.16;98459.97;4352794;32;32492;-85
2023/07/20 01:01:51;;;;;;;14.68;3.25;;;;;;;25.31;53.06;98459.34;4368483;32;171754;-85
2023/07/20 01:04:19;;;;;;;6.12;3.17;;;;;;;24.94;54.04;98456.97;4403573;32;34134;-84
2023/07/20 01:07:02;;;;;;;10.23;3.78;;;;;;;25.31;53.16;98454.03;4393168;32;35027;-84
2023/07/20 01:10:06;;;;;;;7.87;3.35;;;;;;;25.21;53.46;98448.41;4394124;32;34711;-85
2023/07/20 01:12:42;;;;;;;6.75;3.30;;;;;;;25.29;53.36;98445.28;4400709;32;33921;-84
2023/07/20 01:15:12;;;;;;;9.85;3.90;;;;;;;25.37;53.03;98445.69;4379333;32;33791;-85
2023/07/20 01:17:39;;;;;;;7.22;2.80;;;;;;;25.16;53.55;98437.22;4405307;32;34093;-84
2023/07/20 01:20:09;;;;;;;10.95;3.28;;;;;;;25.22;53.55;98439.47;4386793;32;34575;-85
2023/07/20 01:22:48;;;;;;;7.62;3.25;;;;;;;25.10;53.82;98441.06;4385111;32;34496;-85
2023/07/20 01:25:56;;;;;;;8.27;3.62;;;;;;;25.27;53.53;98428.59;4379732;32;34114;-84
2023/07/20 01:28:45;;;;;;;10.07;3.80;;;;;;;25.37;53.13;98429.78;4397126;32;34176;-85
2023/07/20 01:31:20;;;;;;;8.27;3.87;;;;;;;24.74;54.20;98428.09;4390996;32;33701;-85
2023/07/20 01:33:47;;;;;;;;;;;;;;;24.65;54.30;98432.09;4377475;32;33822;-84
2023/07/20 01:36:22;;;;;;;8.55;3.28;;;;;;;24.64;54.41;98438.34;4386361;32;33373;-86
2023/07/20 01:38:51;;;;;;;7.07;3.13;;;;;;;24.41;54.87;98442.28;4381821;32;33944;-85
2023/07/20 01:41:19;;;;;;;9.52;3.45;;;;;;;24.31;55.13;98446.34;4390675;32;33628;-83
2023/07/20 01:43:47;;;;;;;10.95;3.53;;;;;;;24.43;54.69;98442.19;4391033;32;33631;-83
2023/07/20 01:46:16;;;;;;;7.32;3.42;;;;;;;24.81;53.62;98445.34;4404613;32;33759;-83
2023/07/20 01:48:43;;;;;;;7.68;3.42;;;;;;;24.93;53.36;98455.28;4396015;32;33334;-83
2023/07/20 01:51:12;;;;;;;8.73;3.37;;;;;;;24.90;53.35;98460.75;4391351;32;32379;-85
2023/07/20 01:53:39;;;;;;;8.70;3.22;;;;;;;24.95;53.34;98463.13;4390978;32;33855;-85
2023/07/20 01:56:07;;;;;;;8.73;3.75;;;;;;;25.09;52.88;98455.22;4390235;32;34119;-85
2023/07/20 01:58:35;;;;;;;7.30;3.33;;;;;;;25.00;53.02;98466.34;4376913;32;34453;-85
2023/07/20 02:01:03;;;;;;;8.98;3.50;;;;;;;25.26;52.77;98464.03;4390289;32;34118;-84
2023/07/20 02:03:31;;;;;;;7.90;3.30;;;;;;;25.28;53.33;98470.97;4389533;32;33973;-86
2023/07/20 02:05:59;;;;;;;7.32;3.50;;;;;;;25.29;53.21;98480.62;4391599;32;33882;-85
2023/07/20 02:08:26;;;;;;;6.12;2.75;;;;;;;25.37;53.09;98470.41;4391279;32;34151;-84
2023/07/20 02:10:56;;;;;;;9.02;2.80;;;;;;;25.40;52.77;98472.91;4391626;32;33479;-83
2023/07/20 02:13:23;;;;;;;7.62;3.40;;;;;;;25.52;52.38;98479.28;4391025;32;33940;-83
2023/07/20 02:15:51;;;;;;;7.37;3.50;;;;;;;25.52;52.38;98476.63;4391068;32;33506;-84
2023/07/20 02:18:18;;;;;;;6.85;3.28;;;;;;;25.41;52.50;98474.59;4392657;32;34572;-85
2023/07/20 02:20:46;;;;;;;7.12;3.28;;;;;;;25.20;52.99;98476.72;4390641;32;34036;-83
2023/07/20 02:23:14;;;;;;;8.80;3.92;;;;;;;25.26;52.74;98472.00;4390917;32;33902;-83
2023/07/20 02:25:41;;;;;;;9.05;3.47;;;;;;;25.12;53.22;98473.66;4391414;32;34520;-84
2023/07/20 02:28:13;;;;;;;7.57;3.67;;;;;;;25.09;53.17;98484.41;4391101;32;34333;-83
2023/07/20 02:30:40;;;;;;;6.75;3.28;;;;;;;24.87;53.91;98478.63;4389495;32;34051;-84
2023/07/20 02:33:09;;;;;;;11.02;3.62;;;;;;;24.76;54.41;98479.22;4375964;32;34020;-83
2023/07/20 02:35:37;;;;;;;12.48;3.20;;;;;;;24.58;54.57;98489.03;4375969;32;34192;-83
2023/07/20 02:38:06;;;;;;;8.38;3.55;;;;;;;24.52;54.82;98489.38;4382339;32;33434;-82
2023/07/20 02:40:34;;;;;;;7.80;3.47;;;;;;;24.15;55.85;98488.69;4390374;32;33450;-82
2023/07/20 02:43:02;;;;;;;12.23;4.25;;;;;;;24.24;55.81;98488.22;4390174;32;34589;-83
2023/07/20 02:45:29;;;;;;;8.88;3.90;;;;;;;24.25;55.70;98483.78;4389577;32;34771;-83
2023/07/20 02:47:57;;;;;;;10.27;4.05;;;;;;;23.90;56.81;98493.56;4390564;32;34300;-83
2023/07/20 02:50:25;;;;;;;9.70;3.80;;;;;;;23.52;57.43;98502.53;4389196;32;33746;-84
2023/07/20 02:52:52;;;;;;;7.97;3.95;;;;;;;23.64;57.13;98490.47;4390274;32;33789;-84
2023/07/20 02:55:20;;;;;;;12.77;4.68;;;;;;;23.39;58.00;98501.41;4390889;32;35113;-84
2023/07/20 02:57:48;;;;;;;12.57;4.50;;;;;;;23.59;57.62;98496.91;4391098;32;35012;-84
2023/07/20 03:00:16;;;;;;;8.18;3.40;;;;;;;23.62;57.26;98502.91;4386077;32;34411;-84
2023/07/20 03:02:43;;;;;;;8.90;4.05;;;;;;;23.80;57.00;98490.56;4376211;32;34582;-84
2023/07/20 03:05:11;;;;;;;11.77;4.00;;;;;;;23.95;56.72;98495.03;4383044;32;34320;-84
2023/07/20 03:07:39;;;;;;;8.77;3.75;;;;;;;23.94;56.68;98498.63;4389607;32;33929;-84
2023/07/20 03:10:09;;;;;;;8.20;3.62;;;;;;;23.71;57.10;98505.09;4390648;32;33296;-82
2023/07/20 03:12:36;;;;;;;8.05;3.08;;;;;;;23.78;56.56;98508.28;4377351;32;34084;-85
2023/07/20 03:15:04;;;;;;;7.82;3.37;;;;;;;23.46;57.59;98516.06;4390644;32;33861;-83
2023/07/20 03:17:32;;;;;;;10.20;4.07;;;;;;;23.36;57.97;98508.66;4390807;32;34187;-83
2023/07/20 03:20:00;;;;;;;8.38;3.53;;;;;;;23.51;57.22;98518.47;4390966;32;35008;-82
2023/07/20 03:22:29;;;;;;;8.77;3.75;;;;;;;23.44;57.42;98528.47;4391339;32;34491;-84
2023/07/20 03:24:56;;;;;;;5.95;3.47;;;;;;;23.67;56.37;98514.13;4390388;32;34397;-85
2023/07/20 03:27:24;;;;;;;6.90;3.37;;;;;;;23.45;56.98;98519.62;4390489;32;35074;-85
2023/07/20 03:29:51;;;;;;;6.90;3.75;;;;;;;23.76;55.82;98511.03;4390372;32;33577;-86
2023/07/20 03:32:19;;;;;;;8.88;3.85;;;;;;;23.15;57.33;98516.72;4390966;32;33493;-85
2023/07/20 03:34:47;;;;;;;10.15;3.65;;;;;;;23.23;57.29;98526.91;4390807;32;33717;-85
2023/07/20 03:37:14;;;;;;;6.93;3.62;;;;;;;23.49;55.67;98531.78;4390882;32;33340;-84
2023/07/20 03:39:43;;;;;;;7.65;3.37;;;;;;;23.31;56.68;98535.34;4390933;32;33829;-88
2023/07/20 03:42:11;;;;;;;8.75;3.90;;;;;;;22.75;57.73;98533.59;4390352;32;34288;-85
2023/07/20 03:44:38;;;;;;;8.77;3.62;;;;;;;23.06;56.96;98538.28;4390301;32;34306;-83
2023/07/20 03:47:07;;;;;;;9.05;4.05;;;;;;;23.24;56.49;98542.69;4390489;32;34216;-83
2023/07/20 03:49:35;;;;;;;17.92;3.83;;;;;;;23.40;56.06;98549.88;4389649;32;33665;-85
2023/07/20 03:52:03;;;;;;;10.27;3.70;;;;;;;23.59;55.52;98541.88;4390286;32;34823;-84
2023/07/20 03:54:30;;;;;;;7.90;3.20;;;;;;;23.52;55.66;98536.03;4374167;32;34141;-87
2023/07/20 03:56:58;;;;;;;11.50;3.37;;;;;;;23.51;55.61;98534.34;4375195;32;34389;-84
2023/07/20 03:59:26;;;;;;;6.65;3.53;;;;;;;23.67;55.21;98547.69;4390235;32;33844;-83
2023/07/20 04:01:54;;;;;;;10.35;3.65;;;;;;;23.49;55.68;98544.16;4390301;32;33895;-84
2023/07/20 04:04:22;;;;;;;6.68;3.28;;;;;;;23.22;56.81;98547.22;4376730;32;34952;-84
2023/07/20 04:06:49;;;;;;;6.03;3.03;;;;;;;23.26;56.57;98546.13;4390065;32;34230;-85
2023/07/20 04:09:16;;;;;;;7.78;3.47;;;;;;;23.68;54.74;98544.13;4390288;32;33232;-86
2023/07/20 04:11:44;;;;;;;8.52;3.37;;;;;;;23.61;55.02;98538.25;4389875;32;33977;-84
2023/07/20 04:14:11;;;;;;;6.35;3.50;;;;;;;23.40;54.45;98537.50;4390259;32;34145;-84
2023/07/20 04:16:39;;;;;;;7.95;3.55;;;;;;;23.21;55.00;98536.69;4390287;32;35255;-83
2023/07/20 04:19:08;;;;;;;6.80;3.60;;;;;;;23.59;53.72;98532.16;4390463;32;33867;-85
2023/07/20 04:21:40;;;;;;;6.62;3.17;;;;;;;23.72;53.00;98522.72;4390481;32;34747;-85
2023/07/20 04:24:08;;;;;;;8.73;2.92;;;;;;;23.57;53.29;98507.59;4376638;32;33998;-85
2023/07/20 04:26:37;;;;;;;10.00;3.90;;;;;;;23.63;52.66;98509.03;4391370;32;34698;-84
2023/07/20 04:29:04;;;;;;;9.00;3.50;;;;;;;23.62;52.51;98509.97;4378910;32;33770;-85
2023/07/20 04:31:33;;;;;;;6.05;3.20;;;;;;;23.56;52.84;98508.50;4378331;32;32484;-85
2023/07/20 04:34:01;;;;;;;8.00;2.97;;;;;;;23.79;52.53;98512.69;4392077;32;34606;-82
2023/07/20 04:36:28;;;;;;;6.55;3.55;;;;;;;24.31;51.11;98522.31;4388198;32;34277;-85
2023/07/20 04:38:58;;;;;;;8.30;3.78;;;;;;;24.24;51.24;98517.34;4377136;32;33677;-86
2023/07/20 04:41:26;;;;;;;6.95;3.20;;;;;;;24.20;50.94;98521.06;4384791;32;32705;-85
2023/07/20 04:43:54;;;;;;;6.25;2.92;;;;;;;24.73;49.64;98522.66;4392353;32;34825;-86
2023/07/20 04:46:23;;;;;;;8.43;3.55;;;;;;;24.95;49.72;98516.16;4391964;32;34752;-85
2023/07/20 04:48:51;;;;;;;6.37;3.28;;;;;;;25.24;48.42;98517.19;4392239;32;34536;-85
2023/07/20 04:51:20;;;;;;;8.95;3.72;;;;;;;25.43;47.84;98523.16;4378680;32;33243;-86
2023/07/20 04:53:48;;;;;;;7.07;3.37;;;;;;;24.99;48.63;98517.69;4392090;32;33728;-88
2023/07/20 04:56:16;;;;;;;7.55;3.90;;;;;;;25.47;47.36;98521.16;4391735;32;34240;-86
2023/07/20 04:58:45;;;;;;;8.13;3.53;;;;;;;25.45;47.58;98520.38;4392225;32;34367;-86
2023/07/20 05:01:13;;;;;;;6.85;3.40;;;;;;;25.44;47.50;98519.53;4391785;32;34799;-84
2023/07/20 05:03:40;;;;;;;6.45;3.28;;;;;;;25.85;47.17;98528.69;4392142;32;34057;-88
2023/07/20 05:06:08;;;;;;;6.60;3.30;;;;;;;25.48;47.18;98525.53;4377968;32;33179;-86
2023/07/20 05:08:36;;;;;;;7.90;3.50;;;;;;;25.63;46.83;98514.00;4391785;32;34512;-86
2023/07/20 05:11:04;;;;;;;9.82;2.95;;;;;;;25.62;46.92;98528.22;4391871;32;33710;-85
2023/07/20 05:13:31;;;;;;;6.60;3.25;;;;;;;25.43;47.53;98523.16;4391691;32;34271;-85
2023/07/20 05:15:59;;;;;;;6.93;3.50;;;;;;;25.77;47.39;98530.94;4377806;32;34349;-85
2023/07/20 05:18:27;;;;;;;7.78;3.60;;;;;;;25.80;46.52;98528.97;4392234;32;33720;-83
2023/07/20 05:20:55;;;;;;;7.70;3.75;;;;;;;26.04;46.01;98528.44;4378420;32;34624;-87
2023/07/20 05:23:23;;;;;;;8.35;3.80;;;;;;;25.66;46.94;98535.06;4391167;32;34218;-85
2023/07/20 05:25:58;;;;;;;7.45;3.50;;;;;;;26.13;45.71;98522.56;4391989;32;33985;-86
2023/07/20 05:28:28;;;;;;;11.18;3.40;;;;;;;26.10;45.37;98526.28;4391400;32;34428;-85
2023/07/20 05:30:56;;;;;;;7.32;3.97;;;;;;;26.15;45.77;98526.84;4391810;32;34183;-85
2023/07/20 05:33:24;;;;;;;7.05;3.30;;;;;;;26.24;46.13;98520.09;4381416;32;35026;-85
2023/07/20 05:35:51;;;;;;;7.28;3.78;;;;;;;26.37;45.32;98521.06;4386710;32;33931;-85
2023/07/20 05:38:19;;;;;;;7.15;3.45;;;;;;;26.33;45.68;98534.62;4387012;32;33877;-85
2023/07/20 05:40:47;;;;;;;6.90;3.00;;;;;;;26.20;45.62;98532.72;4391193;32;35319;-84
2023/07/20 05:43:15;;;;;;;7.72;3.35;;;;;;;26.46;44.75;98535.63;4390997;32;35053;-88
2023/07/20 05:45:43;;;;;;;8.20;3.33;;;;;;;26.17;45.17;98535.56;4377791;32;35008;-85
2023/07/20 05:48:11;;;;;;;8.82;3.65;;;;;;;26.13;45.03;98534.03;4377123;32;34177;-83
2023/07/20 05:50:45;;;;;;;8.63;3.80;;;;;;;26.61;44.44;98529.34;4376878;32;34938;-84
2023/07/20 05:53:13;;;;;;;9.23;3.67;;;;;;;26.53;44.42;98530.78;4377935;32;35021;-84
2023/07/20 05:55:40;;;;;;;11.77;3.58;;;;;;;26.42;44.43;98529.59;4390919;32;34308;-84
2023/07/20 05:58:08;;;;;;;9.68;3.72;;;;;;;26.79;43.63;98537.97;4377253;32;34643;-82
2023/07/20 06:00:35;;;;;;;8.85;4.05;;;;;;;26.69;43.85;98542.16;4390779;32;34744;-84
2023/07/20 06:03:03;;;;;;;7.60;3.58;;;;;;;26.85;43.66;98550.00;4391334;32;34218;-84
2023/07/20 06:05:30;;;;;;;8.27;3.30;;;;;;;26.44;44.23;98540.13;4391354;32;33386;-85
2023/07/20 06:08:00;;;;;;;8.90;3.92;;;;;;;26.79;44.23;98553.06;4377418;32;33584;-85
2023/07/20 06:10:29;;;;;;;7.37;3.80;;;;;;;27.11;43.27;98556.34;4390588;32;34031;-84
2023/07/20 06:12:57;;;;;;;10.23;3.78;;;;;;;27.06;42.45;98558.44;4387570;32;33862;-85
2023/07/20 06:15:43;;;;;;;7.12;4.12;;;;;;;27.27;43.64;98561.53;4388648;32;33986;-82
2023/07/20 06:18:12;;;;;;;6.28;3.58;;;;;;;27.17;43.17;98558.63;4370417;32;34440;-87
2023/07/20 06:20:40;;;;;;;7.93;3.28;;;;;;;27.57;42.59;98561.31;4390992;32;34260;-83
2023/07/20 06:23:07;;;;;;;7.03;3.95;;;;;;;27.26;41.86;98565.16;4390694;32;33139;-87
2023/07/20 06:25:35;;;;;;;7.60;3.75;;;;;;;27.18;42.34;98560.31;4390873;32;35123;-84
2023/07/20 06:28:04;;;;;;;6.68;3.15;;;;;;;27.32;41.19;98568.28;4390218;32;33740;-84
2023/07/20 06:30:34;;;;;;;7.93;4.10;;;;;;;27.24;41.80;98565.25;4380399;32;34832;-84
2023/07/20 06:33:02;;;;;;;8.73;3.72;;;;;;;27.27;42.20;98570.38;4389181;32;35103;-87
2023/07/20 06:35:29;;;;;;;10.70;3.83;;;;;;;27.31;42.37;98568.34;4389913;32;34968;-84
2023/07/20 06:37:59;;;;;;;12.68;4.15;;;;;;;27.55;42.19;98574.75;4374946;32;33749;-86
2023/07/20 06:40:46;;;;;;;10.85;3.70;;;;;;;27.60;41.12;98577.94;4390266;32;34723;-82
2023/07/20 06:43:14;;;;;;;11.55;3.97;;;;;;;27.69;41.51;98581.81;4390877;32;33348;-81
2023/07/20 06:45:44;;;;;;;7.53;3.75;;;;;;;27.93;40.79;98595.34;4362234;32;33536;-85
2023/07/20 06:48:12;;;;;;;10.30;3.80;;;;;;;28.14;40.34;98585.00;4386563;32;34576;-83
2023/07/20 06:50:40;;;;;;;8.70;3.60;;;;;;;27.89;40.53;98605.34;4390290;32;34549;-86
2023/07/20 06:53:07;;;;;;;7.75;3.47;;;;;;;27.51;41.40;98604.34;4374538;32;34813;-82
2023/07/20 06:55:35;;;;;;;7.22;3.78;;;;;;;28.16;40.55;98601.78;4386378;32;34167;-82
2023/07/20 06:58:09;;;;;;;10.45;3.65;;;;;;;28.28;41.65;98606.25;4390791;32;32936;-85
2023/07/20 07:00:37;;;;;;;8.88;3.65;;;;;;;27.80;40.50;98605.94;4390185;32;33611;-86
2023/07/20 07:03:05;;;;;;;8.70;3.55;;;;;;;28.28;38.97;98597.41;4377186;32;33611;-81
2023/07/20 07:05:36;;;;;;;11.65;3.28;;;;;;;27.71;39.02;98601.22;4390229;32;33934;-82
2023/07/20 07:08:05;;;;;;;10.57;3.90;;;;;;;27.63;39.61;98608.84;4377244;32;33442;-83
2023/07/20 07:10:34;;;;;;;7.70;3.40;;;;;;;27.96;38.33;98595.12;4390793;32;33848;-84
2023/07/20 07:13:03;;;;;;;7.32;3.15;;;;;;;27.78;38.60;98597.22;4390398;32;34986;-83
2023/07/20 07:15:32;;;;;;;14.30;3.85;;;;;;;27.37;38.21;98602.56;4376248;32;33543;-82
2023/07/20 07:18:00;;;;;;;10.15;2.95;;;;;;;27.76;38.02;98592.94;4390786;32;33305;-82
2023/07/20 07:20:29;;;;;;;7.15;3.28;;;;;;;28.23;38.05;98586.22;4389986;32;33842;-87
2023/07/20 07:22:57;;;;;;;9.35;3.00;;;;;;;28.63;37.10;98584.31;4390223;32;34149;-86
2023/07/20 07:25:25;;;;;;;6.87;3.28;;;;;;;28.13;37.43;98613.47;4380072;32;35004;-83
2023/07/20 07:27:53;;;;;;;7.30;2.80;;;;;;;28.34;36.76;98591.66;4390334;32;34234;-83
2023/07/20 07:30:21;;;;;;;9.57;3.65;;;;;;;28.19;37.29;98592.72;4378150;32;33972;-82
2023/07/20 07:32:48;;;;;;;9.80;3.30;;;;;;;28.33;36.90;98585.44;4390234;32;34114;-82
2023/07/20 07:35:16;;;;;;;7.53;2.78;;;;;;;28.60;37.17;98604.06;4388952;32;34956;-86
2023/07/20 07:37:46;;;;;;;7.70;2.90;;;;;;;28.38;36.76;98606.53;4386724;32;33345;-85
2023/07/20 07:40:33;;;;;;;7.07;3.20;;;;;;;28.32;36.71;98606.91;4390536;32;34263;-83
2023/07/20 07:43:01;;;;;;;8.25;2.87;;;;;;;27.94;36.80;98607.69;4388818;32;35141;-85
2023/07/20 07:45:29;;;;;;;11.12;3.92;;;;;;;27.67;37.58;98609.50;4373304;32;35349;-84
2023/07/20 07:47:56;;;;;;;8.20;3.22;;;;;;;28.25;37.87;98613.59;4374792;32;34110;-86
2023/07/20 07:50:24;;;;;;;12.68;3.40;;;;;;;28.70;37.23;98590.06;4389268;32;34525;-84
2023/07/20 07:52:52;;;;;;;6.50;2.50;;;;;;;28.41;36.53;98603.63;4389757;32;33885;-83
2023/07/20 07:55:19;;;;;;;5.20;2.80;;;;;;;28.41;35.81;98600.94;4376207;32;34317;-81
2023/07/20 07:57:47;;;;;;;7.82;2.85;;;;;;;28.24;37.35;98602.09;4389725;32;33608;-83
2023/07/20 08:00:18;;;;;;;7.65;2.90;;;;;;;28.56;37.02;98599.91;4389559;32;33789;-81
2023/07/20 08:02:47;;;;;;;5.82;2.50;;;;;;;28.55;36.13;98603.50;4390418;32;34029;-82
2023/07/20 08:05:16;;;;;;;7.50;3.00;;;;;;;28.73;36.43;98608.53;4390143;32;34053;-85
2023/07/20 08:07:45;;;;;;;6.55;2.62;;;;;;;29.22;36.71;98605.91;4390070;32;33669;-88
2023/07/20 08:10:12;;;;;;;11.05;3.25;;;;;;;28.69;35.89;98604.38;4389789;32;34826;-88
2023/07/20 08:12:40;;;;;;;8.45;2.80;;;;;;;28.90;36.51;98612.66;4376370;32;34274;-85
2023/07/20 08:15:08;;;;;;;5.97;2.62;;;;;;;28.95;36.40;98619.38;4390193;32;34170;-84
2023/07/20 08:17:35;;;;;;;8.60;3.47;;;;;;;28.86;36.45;98617.34;4389705;32;34508;-92
2023/07/20 08:20:04;;;;;;;5.57;2.75;;;;;;;28.34;36.77;98627.16;4375787;32;34416;-83
2023/07/20 08:22:31;;;;;;;8.32;3.10;;;;;;;28.39;36.85;98618.88;4388411;32;34260;-86
2023/07/20 08:24:58;;;;;;;8.38;2.92;;;;;;;28.54;37.04;98623.16;4389980;32;34071;-83
2023/07/20 08:27:26;;;;;;;8.68;2.92;;;;;;;28.03;37.33;98625.72;4389171;32;33464;-82
2023/07/20 08:29:54;;;;;;;9.05;3.03;;;;;;;27.61;37.94;98627.56;4375223;32;34711;-81
2023/07/20 08:32:21;;;;;;;7.37;2.78;;;;;;;27.73;37.73;98625.94;4389699;32;34379;-85
2023/07/20 08:34:49;;;;;;;11.12;3.40;;;;;;;27.41;37.60;98633.38;4389729;32;33845;-90
2023/07/20 08:37:17;;;;;;;15.50;3.05;;;;;;;26.98;38.13;98636.06;4388083;32;33225;-84
2023/07/20 08:39:45;;;;;;;7.80;2.42;;;;;;;27.09;38.05;98640.72;4387564;32;34184;-86
2023/07/20 08:42:14;;;;;;;12.02;3.20;;;;;;;27.08;38.25;98647.81;4370273;32;34144;-84
2023/07/20 08:44:42;;;;;;;8.02;2.90;;;;;;;27.10;38.12;98648.59;4386787;32;34222;-85
2023/07/20 08:47:10;;;;;;;8.25;2.40;;;;;;;27.35;38.00;98653.25;4376224;32;33901;-86
2023/07/20 08:49:39;;;;;;;5.03;2.58;;;;;;;26.78;38.01;98647.09;4374809;32;33557;-84
2023/07/20 08:52:07;;;;;;;7.15;2.83;;;;;;;26.84;38.28;98646.72;4375263;32;33793;-87
2023/07/20 08:54:35;;;;;;;6.47;2.55;;;;;;;26.80;38.25;98655.84;4376126;32;34280;-87
2023/07/20 08:57:04;;;;;;;8.52;2.78;;;;;;;26.74;38.49;98657.06;4389557;32;34296;-87
2023/07/20 08:59:32;;;;;;;7.80;2.35;;;;;;;27.11;37.98;98654.81;4375396;32;35010;-86
2023/07/20 09:02:00;;;;;;;8.15;2.42;;;;;;;27.73;37.27;98662.34;4388534;32;35124;-84
2023/07/20 09:04:28;;;;;;;5.10;2.50;;;;;;;27.78;38.28;98663.81;4376266;32;33914;-86
2023/07/20 09:06:57;;;;;;;9.63;2.60;;;;;;;28.22;36.23;98681.28;4389554;32;33452;-87
2023/07/20 09:09:24;;;;;;;7.07;2.45;;;;;;;27.97;36.91;98687.44;4374482;32;33921;-85
2023/07/20 09:11:52;;;;;;;10.23;2.12;;;;;;;28.54;36.41;98679.16;4389969;32;34057;-84
2023/07/20 09:14:19;;;;;;;11.85;3.35;;;;;;;29.08;34.80;98676.28;4377941;32;34968;-85
2023/07/20 09:16:53;;;;;;;6.72;2.47;;;;;;;28.71;33.85;98674.47;4377980;32;33421;-86
2023/07/20 09:19:21;;;;;;;9.35;2.25;;;;;;;28.77;33.78;98677.56;4368051;32;33671;-85
2023/07/20 09:21:50;;;;;;;4.93;2.15;;;;;;;28.81;34.29;98673.72;4378161;32;35185;-84
2023/07/20 09:24:19;;;;;;;10.70;2.15;;;;;;;29.45;33.33;98678.12;4377715;32;33902;-86
2023/07/20 09:26:48;;;;;;;5.68;2.40;;;;;;;29.26;33.01;98662.59;4390242;32;33705;-83
2023/07/20 09:29:19;;;;;;;7.22;2.50;;;;;;;29.45;33.67;98662.13;4391697;32;34010;-87
2023/07/20 09:32:04;;;;;;;5.43;1.90;;;;;;;29.27;33.54;98670.47;4377363;32;35225;-90
2023/07/20 09:34:31;;;;;;;6.10;2.00;;;;;;;28.73;34.00;98665.41;4390880;32;34587;-87
2023/07/20 09:37:02;;;;;;;6.68;2.45;;;;;;;29.14;33.49;98653.66;4385330;32;33760;-87
2023/07/20 09:39:30;;;;;;;7.62;2.50;;;;;;;29.25;33.54;98655.56;4387892;32;34564;-86
2023/07/20 09:42:02;;;;;;;6.30;2.08;;;;;;;29.36;33.78;98652.09;4377347;32;33813;-89
2023/07/20 09:44:50;;;;;;;8.88;2.40;;;;;;;29.29;33.41;98667.72;4340604;33;34174;-85
2023/07/20 09:47:25;;;;;;;6.20;2.67;;;;;;;29.55;33.90;98671.19;4330783;32;33659;-86
2023/07/20 09:50:01;;;;;;;7.47;2.05;;;;;;;29.83;34.04;98667.34;4333593;33;34177;-84
2023/07/20 09:52:32;;;;;;;4.60;2.33;;;;;;;30.01;33.41;98671.31;4344482;33;34173;-90
2023/07/20 09:55:03;;;;;;;8.40;2.17;;;;;;;29.18;32.54;98654.28;4331296;33;34497;-83
2023/07/20 09:57:32;;;;;;;5.78;2.22;;;;;;;29.76;32.64;98666.09;4331450;33;33938;-88
2023/07/20 10:00:01;;;;;;;7.15;2.33;;;;;;;30.11;32.61;98676.81;4342750;33;34793;-86
2023/07/20 10:02:33;;;;;;;8.02;2.30;;;;;;;29.88;32.50;98675.84;4344240;32;35880;-84
2023/07/20 10:05:03;;;;;;;5.53;2.00;;;;;;;29.92;32.83;98676.47;4377099;32;34495;-83
2023/07/20 10:07:32;;;;;;;8.75;2.22;;;;;;;30.14;32.60;98673.06;4388100;32;34701;-83
2023/07/20 10:10:01;;;;;;;9.57;2.60;;;;;;;30.22;32.99;98673.34;4375248;32;34187;-83
2023/07/20 10:12:30;;;;;;;7.00;2.28;;;;;;;30.11;32.14;98676.81;4390924;32;34235;-86
2023/07/20 10:15:23;;;;;;;4.70;1.95;;;;;;;30.40;32.25;98682.66;4377122;32;34074;-84
2023/07/20 10:18:08;;;;;;;6.43;2.33;;;;;;;30.25;32.28;98679.31;4384509;32;33243;-88
2023/07/20 10:20:36;;;;;;;;;;;;;;;29.82;33.41;98684.34;4387653;32;33954;-86
2023/07/20 10:23:04;;;;;;;6.57;2.10;;;;;;;30.08;34.15;98697.56;4389098;32;34168;-88
2023/07/20 10:25:32;;;;;;;9.40;2.80;;;;;;;29.89;33.27;98690.94;4378975;32;34790;-86
2023/07/20 10:28:00;;;;;;;5.90;2.30;;;;;;;29.64;33.70;98689.22;4391173;32;34404;-85
2023/07/20 10:30:30;;;;;;;6.07;2.35;;;;;;;29.93;32.73;98686.19;4377707;32;34004;-85
2023/07/20 10:33:02;;;;;;;6.85;2.12;;;;;;;30.05;33.06;98680.81;4391496;32;33390;-83
2023/07/20 10:35:30;;;;;;;8.07;2.05;;;;;;;30.02;33.88;98688.19;4369837;32;33125;-89
2023/07/20 10:38:02;;;;;;;9.10;1.98;;;;;;;29.44;33.40;98689.78;4379595;32;34066;-86
2023/07/20 10:40:35;;;;;;;5.57;2.05;;;;;;;29.62;34.08;98683.13;4380446;32;34841;-85
2023/07/20 10:43:07;;;;;;;6.35;2.33;;;;;;;29.67;33.82;98678.31;4377367;32;34874;-85
2023/07/20 10:45:38;;;;;;;9.20;2.17;;;;;;;29.64;33.91;98680.34;4390770;32;33893;-85
2023/07/20 10:48:12;;;;;;;7.60;2.30;;;;;;;29.68;34.08;98674.66;4390378;32;33355;-88
2023/07/20 10:50:42;;;;;;;10.35;2.20;;;;;;;30.13;34.37;98669.53;4390724;32;34542;-85
2023/07/20 10:53:12;;;;;;;4.95;2.08;;;;;;;30.46;32.82;98671.50;4390408;32;35016;-85
2023/07/20 10:55:40;;;;;;;5.10;1.83;;;;;;;29.99;33.36;98669.72;4388877;32;35110;-84
2023/07/20 10:58:14;;;;;;;10.52;2.30;;;;;;;30.61;32.40;98669.47;4390846;32;33365;-84
2023/07/20 11:00:59;;;;;;;10.82;2.28;;;;;;;30.60;31.80;98666.87;4378105;32;34014;-86
2023/07/20 11:03:31;;;;;;;;;;;;;;;30.44;32.12;98673.44;4389922;32;34252;-87
2023/07/20 11:06:25;;;;;;;5.32;2.35;;;;;;;30.44;32.71;98673.44;4390957;32;33929;-85
2023/07/20 11:09:14;;;;;;;5.07;2.00;;;;;;;30.20;33.07;98669.97;4390774;32;33736;-85
2023/07/20 11:11:44;;;;;;;7.25;2.03;;;;;;;30.53;32.25;98670.06;4378042;32;34045;-85
2023/07/20 11:14:25;;;;;;;7.47;2.20;;;;;;;30.75;30.86;98665.72;4390961;32;34094;-88
2023/07/20 11:16:53;;;;;;;6.72;2.22;;;;;;;30.99;30.84;98655.78;4390910;32;34991;-83
2023/07/20 11:19:25;;;;;;;9.68;2.08;;;;;;;31.06;30.10;98663.31;4384262;32;33369;-88
2023/07/20 11:21:57;;;;;;;7.20;2.10;;;;;;;30.94;30.25;98655.28;4389186;32;34347;-88
2023/07/20 11:24:31;;;;;;;6.57;1.87;;;;;;;30.36;30.93;98664.28;4390830;32;34565;-82
2023/07/20 11:27:01;;;;;;;7.18;2.10;;;;;;;30.58;31.08;98663.50;4377019;32;34195;-83
2023/07/20 11:29:28;;;;;;;10.48;2.00;;;;;;;30.61;31.22;98668.59;4376332;32;34031;-87
2023/07/20 11:32:02;;;;;;;11.55;2.30;;;;;;;30.88;31.00;98660.28;4377809;32;34382;-86
2023/07/20 11:34:33;;;;;;;5.25;1.85;;;;;;;30.95;30.75;98661.47;4377321;32;34245;-87
2023/07/20 11:37:03;;;;;;;4.37;1.67;;;;;;;30.50;30.44;98664.94;4390608;32;34301;-83
2023/07/20 11:39:34;;;;;;;11.15;2.00;;;;;;;31.06;30.48;98658.81;4389762;32;33407;-86
2023/07/20 11:42:02;;;;;;;8.82;1.85;;;;;;;30.61;30.19;98664.12;4383432;32;33822;-82